createdAt,value
2023-03-11T00:03:02.708Z,95408.97
2023-03-11T00:06:09.649Z,95425.44
2023-03-11T00:09:16.544Z,95420.84
2023-03-11T00:12:25.035Z,95422.22
2023-03-11T00:15:33.771Z,95418.19
2023-03-11T00:18:40.619Z,95420.03
2023-03-11T00:21:47.441Z,95411.28
2023-03-11T00:24:53.483Z,95411.84
2023-03-11T00:28:03.832Z,95402.28
2023-03-11T00:31:09.754Z,95407.94
2023-03-11T00:34:16.657Z,95402.06
2023-03-11T00:37:22.664Z,95410.59
2023-03-11T00:40:38.588Z,95405.06
2023-03-11T00:43:47.757Z,95415.19
2023-03-11T00:46:54.520Z,95408.63
2023-03-11T00:50:00.531Z,95407.81
2023-03-11T00:53:10.589Z,95415.19
2023-03-11T00:56:18.855Z,95417.16
2023-03-11T00:59:28.541Z,95416.09
2023-03-11T01:02:34.491Z,95411.16
2023-03-11T01:05:41.547Z,95411.16
2023-03-11T01:08:47.455Z,95419.22
2023-03-11T01:11:54.647Z,95422.75
2023-03-11T01:15:04.123Z,95412.88
2023-03-11T01:18:10.979Z,95423.47
2023-03-11T01:21:17.201Z,95424.13
2023-03-11T01:24:24.092Z,95418.41
2023-03-11T01:27:31.210Z,95430.47
2023-03-11T01:30:44.374Z,95424.06
2023-03-11T01:33:50.606Z,95417.72
2023-03-11T01:36:57.372Z,95417.03
2023-03-11T01:40:08.126Z,95421.16
2023-03-11T01:43:50.517Z,95407.78
2023-03-11T01:47:39.393Z,95415.25
2023-03-11T01:50:53.735Z,95417.13
2023-03-11T01:54:06.687Z,95410.78
2023-03-11T01:57:17.867Z,95418.03
2023-03-11T02:00:24.858Z,95424.94
2023-03-11T02:03:39.321Z,95411.00
2023-03-11T02:06:45.686Z,95415.16
2023-03-11T02:09:53.111Z,95406.66
2023-03-11T02:13:00.477Z,95413.53
2023-03-11T02:16:10.950Z,95413.78
2023-03-11T02:19:38.125Z,95412.53
2023-03-11T02:22:47.531Z,95416.50
2023-03-11T02:26:08.973Z,95413.56
2023-03-11T02:29:19.895Z,95415.94
2023-03-11T02:32:27.148Z,95405.06
2023-03-11T02:35:37.422Z,95409.78
2023-03-11T02:38:46.654Z,95412.72
2023-03-11T02:41:52.891Z,95421.00
2023-03-11T02:45:16.988Z,95434.09
2023-03-11T02:48:32.695Z,95424.09
2023-03-11T02:51:40.633Z,95426.28
2023-03-11T02:54:46.595Z,95432.38
2023-03-11T02:57:53.415Z,95429.09
2023-03-11T03:01:02.167Z,95421.38
2023-03-11T03:04:09.872Z,95430.25
2023-03-11T03:07:19.341Z,95426.34
2023-03-11T03:10:26.319Z,95428.59
2023-03-11T03:13:33.717Z,95424.16
2023-03-11T03:16:43.748Z,95440.91
2023-03-11T03:19:50.426Z,95428.97
2023-03-11T03:22:58.324Z,95439.28
2023-03-11T03:26:09.520Z,95428.88
2023-03-11T03:29:18.169Z,95433.63
2023-03-11T03:32:27.834Z,95431.78
2023-03-11T03:35:36.545Z,95423.22
2023-03-11T03:38:59.187Z,95427.00
2023-03-11T03:42:11.115Z,95427.13
2023-03-11T03:45:20.364Z,95435.91
2023-03-11T03:48:33.283Z,95444.56
2023-03-11T03:51:41.615Z,95444.84
2023-03-11T03:55:09.561Z,95441.06
2023-03-11T03:58:16.487Z,95444.94
2023-03-11T04:01:24.666Z,95434.03
2023-03-11T04:04:34.224Z,95440.75
2023-03-11T04:07:41.190Z,95437.13
2023-03-11T04:10:48.086Z,95432.47
2023-03-11T04:13:55.369Z,95434.31
2023-03-11T04:17:01.565Z,95444.44
2023-03-11T04:20:14.564Z,95442.00
2023-03-11T04:23:23.880Z,95433.94
2023-03-11T04:26:31.776Z,95434.31
2023-03-11T04:29:37.968Z,95438.78
2023-03-11T04:32:45.293Z,95422.97
2023-03-11T04:35:54.657Z,95429.66
2023-03-11T04:39:01.576Z,95432.91
2023-03-11T04:42:14.221Z,95435.13
2023-03-11T04:45:27.622Z,95443.81
2023-03-11T04:48:37.503Z,95438.72
2023-03-11T04:51:47.306Z,95449.41
2023-03-11T04:54:56.390Z,95447.56
2023-03-11T04:58:03.463Z,95458.44
2023-03-11T05:01:23.579Z,95452.97
2023-03-11T05:04:30.598Z,95454.50
2023-03-11T05:07:39.999Z,95453.25
2023-03-11T05:10:47.716Z,95466.78
2023-03-11T05:13:59.885Z,95465.13
2023-03-11T05:17:12.438Z,95459.06
2023-03-11T05:20:21.102Z,95470.78
2023-03-11T05:23:38.021Z,95489.16
2023-03-11T05:26:46.313Z,95489.78
2023-03-11T05:29:59.798Z,95500.44
2023-03-11T05:33:08.896Z,95506.31
2023-03-11T05:36:16.260Z,95510.72
2023-03-11T05:39:27.200Z,95511.41
2023-03-11T05:42:34.177Z,95518.19
2023-03-11T05:45:41.361Z,95535.19
2023-03-11T05:48:48.265Z,95537.63
2023-03-11T05:51:58.497Z,95535.88
2023-03-11T05:55:12.539Z,95551.88
2023-03-11T05:58:27.866Z,95552.19
2023-03-11T06:01:37.297Z,95570.28
2023-03-11T06:04:43.511Z,95566.63
2023-03-11T06:07:51.255Z,95581.13
2023-03-11T06:11:05.289Z,95596.41
2023-03-11T06:14:16.803Z,95595.88
2023-03-11T06:17:25.912Z,95606.78
2023-03-11T06:20:33.151Z,95613.22
2023-03-11T06:23:39.155Z,95613.13
2023-03-11T06:26:48.897Z,95629.75
2023-03-11T06:29:57.239Z,95621.25
2023-03-11T06:33:06.379Z,95628.03
2023-03-11T06:36:15.431Z,95634.25
2023-03-11T06:39:22.704Z,95638.22
2023-03-11T06:42:33.225Z,95634.50
2023-03-11T06:45:40.392Z,95647.06
2023-03-11T06:48:52.161Z,95629.28
2023-03-11T06:52:00.631Z,95640.38
2023-03-11T06:55:13.757Z,95648.16
2023-03-11T06:58:36.417Z,95647.81
2023-03-11T07:01:53.495Z,95654.31
2023-03-11T07:05:00.443Z,95663.72
2023-03-11T07:08:27.096Z,95673.56
2023-03-11T07:11:36.273Z,95674.56
2023-03-11T07:14:59.024Z,95680.16
2023-03-11T07:18:07.133Z,95681.59
2023-03-11T07:21:17.751Z,95681.25
2023-03-11T07:24:24.800Z,95696.41
2023-03-11T07:27:34.168Z,95699.81
2023-03-11T07:30:46.801Z,95708.50
2023-03-11T07:33:53.236Z,95703.81
2023-03-11T07:37:00.063Z,95715.38
2023-03-11T07:40:06.128Z,95718.94
2023-03-11T07:43:14.078Z,95722.88
2023-03-11T07:46:36.120Z,95711.19
2023-03-11T07:49:42.960Z,95721.59
2023-03-11T07:52:49.154Z,95734.16
2023-03-11T07:56:00.087Z,95736.75
2023-03-11T07:59:09.833Z,95748.34
2023-03-11T08:02:19.560Z,95748.63
2023-03-11T08:05:25.568Z,95765.22
2023-03-11T08:08:32.463Z,95774.19
2023-03-11T08:11:39.459Z,95768.41
2023-03-11T08:14:46.807Z,95773.00
2023-03-11T08:17:55.378Z,95772.28
2023-03-11T08:21:06.983Z,95766.66
2023-03-11T08:24:16.780Z,95775.84
2023-03-11T08:27:23.581Z,95784.22
2023-03-11T08:30:29.516Z,95784.88
2023-03-11T08:33:38.825Z,95785.06
2023-03-11T08:36:45.298Z,95793.22
2023-03-11T08:39:52.149Z,95784.66
2023-03-11T08:42:59.458Z,95795.47
2023-03-11T08:46:09.677Z,95801.31
2023-03-11T08:49:18.431Z,95813.81
2023-03-11T08:52:25.198Z,95809.56
2023-03-11T08:55:31.174Z,95811.59
2023-03-11T08:58:38.337Z,95823.38
2023-03-11T09:01:44.868Z,95828.31
2023-03-11T09:04:54.196Z,95827.16
2023-03-11T09:08:05.268Z,95825.56
2023-03-11T09:11:13.776Z,95836.59
2023-03-11T09:14:20.214Z,95850.94
2023-03-11T09:17:29.344Z,95858.66
2023-03-11T09:20:40.297Z,95856.34
2023-03-11T09:23:47.889Z,95861.56
2023-03-11T09:26:53.817Z,95870.97
2023-03-11T09:30:06.815Z,95858.56
2023-03-11T09:33:21.329Z,95868.56
2023-03-11T09:36:30.696Z,95881.06
2023-03-11T09:39:36.943Z,95888.44
2023-03-11T09:42:58.851Z,95887.53
2023-03-11T09:46:32.675Z,95877.53
2023-03-11T09:50:08.904Z,95882.47
2023-03-11T09:53:36.424Z,95881.78
2023-03-11T09:56:53.793Z,95894.88
2023-03-11T10:00:01.068Z,95894.88
2023-03-11T10:03:21.350Z,95897.66
2023-03-11T10:06:31.873Z,95914.16
2023-03-11T10:09:51.123Z,95916.13
2023-03-11T10:13:10.824Z,95930.94
2023-03-11T10:16:31.315Z,95932.09
2023-03-11T10:19:53.002Z,95944.41
2023-03-11T10:23:20.482Z,95955.19
2023-03-11T10:26:39.143Z,95949.31
2023-03-11T10:30:01.100Z,95963.53
2023-03-11T10:33:42.924Z,95974.34
2023-03-11T10:37:04.204Z,95992.66
2023-03-11T10:40:26.497Z,95994.59
2023-03-11T10:43:49.537Z,96004.75
2023-03-11T10:46:58.255Z,96010.31
2023-03-11T10:50:12.626Z,96018.47
2023-03-11T10:53:22.325Z,96023.38
2023-03-11T10:56:34.635Z,96029.59
2023-03-11T10:59:55.248Z,96039.75
2023-03-11T11:03:04.608Z,96042.69
2023-03-11T11:06:31.088Z,96044.31
2023-03-11T11:09:37.941Z,96063.44
2023-03-11T11:13:08.838Z,96070.47
2023-03-11T11:16:39.470Z,96062.94
2023-03-11T11:20:04.801Z,96068.03
2023-03-11T11:23:57.832Z,96098.56
2023-03-11T11:27:39.595Z,96116.41
2023-03-11T11:30:59.882Z,96124.59
2023-03-11T11:34:37.855Z,96130.47
2023-03-11T11:37:49.982Z,96123.59
2023-03-11T11:41:00.689Z,96152.69
2023-03-11T11:44:13.546Z,96160.25
2023-03-11T11:47:28.427Z,96174.75
2023-03-11T11:50:46.435Z,96165.78
2023-03-11T11:54:03.081Z,96184.88
2023-03-11T11:57:17.687Z,96193.72
2023-03-11T12:00:30.081Z,96211.69
2023-03-11T12:04:07.888Z,96205.31
2023-03-11T12:07:36.710Z,96215.09
2023-03-11T12:10:55.507Z,96224.06
2023-03-11T12:14:15.547Z,96229.97
2023-03-11T12:17:27.687Z,96232.00
2023-03-11T12:20:43.984Z,96248.34
2023-03-11T12:24:21.686Z,96261.56
2023-03-11T12:27:37.173Z,96270.13
2023-03-11T12:30:52.792Z,96267.31
2023-03-11T12:34:05.717Z,96266.50
2023-03-11T12:37:21.645Z,96284.06
2023-03-11T12:40:58.580Z,96295.72
2023-03-11T12:44:35.752Z,96311.28
2023-03-11T12:47:41.869Z,96307.66
2023-03-11T12:50:49.585Z,96316.84
2023-03-11T12:53:57.155Z,96312.59
2023-03-11T12:57:33.505Z,96329.94
2023-03-11T13:01:14.162Z,96343.66
2023-03-11T13:04:58.994Z,96352.59
2023-03-11T13:08:17.872Z,96367.69
2023-03-11T13:11:46.008Z,96372.28
2023-03-11T13:15:31.855Z,96384.59
2023-03-11T13:18:39.155Z,96394.25
2023-03-11T13:21:45.225Z,96390.81
2023-03-11T13:24:55.702Z,96400.19
2023-03-11T13:28:36.690Z,96405.72
2023-03-11T13:32:12.663Z,96425.09
2023-03-11T13:35:56.737Z,96429.00
2023-03-11T13:39:42.952Z,96441.63
2023-03-11T13:43:11.740Z,96451.25
2023-03-11T13:46:40.335Z,96462.75
2023-03-11T13:50:23.619Z,96477.41
2023-03-11T13:53:56.438Z,96481.44
2023-03-11T13:57:07.914Z,96489.97
2023-03-11T14:00:24.330Z,96495.88
2023-03-11T14:03:44.051Z,96504.16
2023-03-11T14:06:59.903Z,96498.34
2023-03-11T14:10:32.327Z,96510.19
2023-03-11T14:13:47.527Z,96515.66
2023-03-11T14:16:54.776Z,96515.00
2023-03-11T14:20:15.401Z,96527.94
2023-03-11T14:23:47.112Z,96543.06
2023-03-11T14:27:16.176Z,96541.50
2023-03-11T14:30:38.485Z,96542.25
2023-03-11T14:34:05.095Z,96556.09
2023-03-11T14:37:33.526Z,96557.94
2023-03-11T14:40:42.294Z,96574.03
2023-03-11T14:43:58.045Z,96581.50
2023-03-11T14:47:15.176Z,96594.09
2023-03-11T14:50:35.290Z,96600.16
2023-03-11T14:53:51.798Z,96609.78
2023-03-11T14:57:09.606Z,96612.72
2023-03-11T15:00:25.192Z,96620.44
2023-03-11T15:03:36.999Z,96626.72
2023-03-11T15:06:48.320Z,96629.78
2023-03-11T15:09:55.510Z,96634.50
2023-03-11T15:13:17.977Z,96646.78
2023-03-11T15:16:36.477Z,96654.28
2023-03-11T15:19:48.621Z,96648.81
2023-03-11T15:23:01.540Z,96659.41
2023-03-11T15:26:08.891Z,96663.06
2023-03-11T15:29:21.564Z,96669.56
2023-03-11T15:32:42.215Z,96674.16
2023-03-11T15:35:54.113Z,96671.63
2023-03-11T15:39:20.542Z,96686.94
2023-03-11T15:42:29.510Z,96683.50
2023-03-11T15:45:39.807Z,96695.34
2023-03-11T15:48:47.111Z,96694.47
2023-03-11T15:51:53.202Z,96703.28
2023-03-11T15:55:00.043Z,96706.25
2023-03-11T15:58:17.214Z,96704.78
2023-03-11T16:01:34.877Z,96723.53
2023-03-11T16:04:40.973Z,96730.38
2023-03-11T16:07:48.169Z,96744.97
2023-03-11T16:10:54.680Z,96755.06
2023-03-11T16:14:05.364Z,96755.16
2023-03-11T16:17:14.921Z,96760.78
2023-03-11T16:20:28.957Z,96771.00
2023-03-11T16:23:51.002Z,96778.00
2023-03-11T16:26:58.574Z,96780.22
2023-03-11T16:30:04.557Z,96779.41
2023-03-11T16:33:14.355Z,96789.03
2023-03-11T16:36:20.481Z,96802.09
2023-03-11T16:39:27.237Z,96799.91
2023-03-11T16:42:33.149Z,96824.75
2023-03-11T16:45:54.095Z,96827.59
2023-03-11T16:49:02.777Z,96836.38
2023-03-11T16:52:10.377Z,96837.34
2023-03-11T16:55:16.629Z,96846.72
2023-03-11T16:58:26.497Z,96854.03
2023-03-11T17:01:38.960Z,96860.91
2023-03-11T17:04:50.895Z,96883.22
2023-03-11T17:08:05.967Z,96882.69
2023-03-11T17:11:20.357Z,96898.94
2023-03-11T17:14:26.926Z,96902.75
2023-03-11T17:17:33.753Z,96909.50
2023-03-11T17:20:46.404Z,96925.34
2023-03-11T17:23:54.747Z,96918.31
2023-03-11T17:27:00.662Z,96925.88
2023-03-11T17:30:12.819Z,96935.22
2023-03-11T17:33:21.088Z,96941.16
2023-03-11T17:36:35.705Z,96941.84
2023-03-11T17:39:41.761Z,96956.97
2023-03-11T17:42:50.397Z,96962.47
2023-03-11T17:45:58.847Z,96969.34
2023-03-11T17:49:08.822Z,96979.78
2023-03-11T17:52:17.722Z,96973.47
2023-03-11T17:55:24.654Z,96979.50
2023-03-11T17:58:30.603Z,96997.66
2023-03-11T18:01:37.547Z,97009.66
2023-03-11T18:04:46.220Z,97005.81
2023-03-11T18:07:58.806Z,97019.28
2023-03-11T18:11:16.391Z,97029.31
2023-03-11T18:14:24.493Z,97031.25
2023-03-11T18:17:32.268Z,97029.88
2023-03-11T18:20:43.556Z,97042.81
2023-03-11T18:23:55.524Z,97030.97
2023-03-11T18:27:08.901Z,97034.97
2023-03-11T18:30:20.941Z,97056.31
2023-03-11T18:33:45.783Z,97065.41
2023-03-11T18:36:52.123Z,97059.06
2023-03-11T18:40:01.685Z,97064.56
2023-03-11T18:43:09.044Z,97073.91
2023-03-11T18:46:19.402Z,97069.25
2023-03-11T18:49:25.468Z,97078.03
2023-03-11T18:52:32.280Z,97075.59
2023-03-11T18:55:40.966Z,97080.94
2023-03-11T18:58:48.789Z,97075.00
2023-03-11T19:01:54.917Z,97088.78
2023-03-11T19:05:14.955Z,97089.47
2023-03-11T19:08:21.018Z,97100.78
2023-03-11T19:11:30.561Z,97094.72
2023-03-11T19:14:36.556Z,97107.25
2023-03-11T19:17:43.393Z,97110.00
2023-03-11T19:21:00.011Z,97118.81
2023-03-11T19:24:10.910Z,97121.56
2023-03-11T19:27:19.622Z,97124.16
2023-03-11T19:30:26.984Z,97129.09
2023-03-11T19:33:50.263Z,97131.56
2023-03-11T19:36:58.898Z,97134.44
2023-03-11T19:40:05.076Z,97145.19
2023-03-11T19:43:18.867Z,97154.84
2023-03-11T19:46:26.425Z,97147.69
2023-03-11T19:49:33.334Z,97153.44
2023-03-11T19:52:39.442Z,97155.09
2023-03-11T19:55:47.444Z,97152.34
2023-03-11T19:58:56.234Z,97153.16
2023-03-11T20:02:03.831Z,97152.34
2023-03-11T20:05:12.789Z,97167.25
2023-03-11T20:08:23.658Z,97162.28
2023-03-11T20:11:30.546Z,97167.13
2023-03-11T20:14:41.203Z,97169.34
2023-03-11T20:17:47.872Z,97172.47
2023-03-11T20:20:59.151Z,97170.84
2023-03-11T20:24:10.197Z,97175.94
2023-03-11T20:27:17.533Z,97178.88
2023-03-11T20:30:29.869Z,97178.56
2023-03-11T20:33:37.639Z,97187.13
2023-03-11T20:37:02.997Z,97192.22
2023-03-11T20:40:16.032Z,97190.44
2023-03-11T20:43:22.442Z,97202.53
2023-03-11T20:46:35.373Z,97191.22
2023-03-11T20:49:41.558Z,97197.25
2023-03-11T20:52:48.654Z,97198.94
2023-03-11T20:55:56.653Z,97198.38
2023-03-11T20:59:04.760Z,97205.81
2023-03-11T21:02:16.831Z,97206.75
2023-03-11T21:05:24.040Z,97208.25
2023-03-11T21:08:30.181Z,97222.44
2023-03-11T21:11:48.808Z,97219.81
2023-03-11T21:14:56.936Z,97213.22
2023-03-11T21:18:13.011Z,97213.22
2023-03-11T21:21:23.113Z,97221.88
2023-03-11T21:24:30.075Z,97223.09
2023-03-11T21:27:36.180Z,97226.34
2023-03-11T21:30:44.486Z,97230.75
2023-03-11T21:33:57.554Z,97235.09
2023-03-11T21:37:04.620Z,97234.56
2023-03-11T21:40:15.485Z,97244.22
2023-03-11T21:43:24.295Z,97248.22
2023-03-11T21:46:34.509Z,97239.16
2023-03-11T21:49:44.044Z,97240.97
2023-03-11T21:52:50.170Z,97253.66
2023-03-11T21:55:57.463Z,97261.59
2023-03-11T21:59:05.024Z,97257.56
2023-03-11T22:02:19.496Z,97267.22
2023-03-11T22:05:28.781Z,97269.31
2023-03-11T22:08:35.939Z,97266.72
2023-03-11T22:11:41.904Z,97271.72
2023-03-11T22:14:48.711Z,97279.06
2023-03-11T22:17:54.876Z,97283.69
2023-03-11T22:21:05.472Z,97283.31
2023-03-11T22:24:14.812Z,97286.50
2023-03-11T22:27:21.684Z,97290.84
2023-03-11T22:30:28.750Z,97293.41
2023-03-11T22:33:35.526Z,97284.47
2023-03-11T22:36:44.371Z,97285.63
2023-03-11T22:39:51.169Z,97290.88
2023-03-11T22:42:57.417Z,97285.94
2023-03-11T22:46:04.978Z,97297.75
2023-03-11T22:49:11.175Z,97299.19
2023-03-11T22:52:21.249Z,97303.94
2023-03-11T22:55:27.266Z,97299.56
2023-03-11T22:58:34.052Z,97294.31
2023-03-11T23:01:40.113Z,97291.03
2023-03-11T23:04:48.480Z,97289.88
2023-03-11T23:07:58.081Z,97290.41
2023-03-11T23:11:06.869Z,97279.56
2023-03-11T23:14:12.760Z,97287.19
2023-03-11T23:17:19.539Z,97297.97
2023-03-11T23:20:25.715Z,97300.63
2023-03-11T23:23:35.037Z,97295.88
2023-03-11T23:26:41.472Z,97290.25
2023-03-11T23:29:48.197Z,97302.31
2023-03-11T23:32:54.182Z,97299.97
2023-03-11T23:36:04.057Z,97310.88
2023-03-11T23:39:12.627Z,97313.41
2023-03-11T23:42:25.764Z,97316.78
2023-03-11T23:45:31.936Z,97319.22
2023-03-11T23:48:39.335Z,97321.13
2023-03-11T23:51:45.294Z,97328.88
2023-03-11T23:54:54.893Z,97336.78
2023-03-11T23:58:00.841Z,97333.50
